Miami, Canada
Current Conditions -  °F | °C
As of 3:15 AM on Sunday 21 Dec 2014 (Local Time) from KD55 Reporting Station
Haze Haze  
Wind Chill: 21°   Ceiling: 200
Heat Index: 27°   Visibility: 4mi
Dew Point: 27°   Wind: 5mph
Humidity: 100%   Direction: 360°N
Pressure: 29.67"   Gusts: NA
Location:  49.37°N, 98.24°W
Report Text: KD55 210915Z AUTO 36004KT 4SM BR OVC002 M03/M03 A2967 RMK AO2
Loading
Personal Weather Stations






























Interactive Weather Map New forecast layout! Learn more

10-Day Weather Forecast

Advertisements
Track Severe Weather on mobile